Time;durP1;ratioP1;P1;durP2;ratioP2;P2;SDS_P1;SDS_P2;PMS_P1;PMS_P2;Temp;Humidity;BMP_temperature;BMP_pressure;BME280_temperature;BME280_humidity;BME280_pressure;Samples;Min_cycle;Max_cycle;Signal;HPM_P1;HPM_P2
2021/06/15 00:02:07;;;;;;;5.53;3.92;;;;;;;14.92;92.63;101004.47;5024903;28;20522;-83
2021/06/15 00:04:34;;;;;;;4.90;4.00;;;;;;;14.89;92.50;101004.59;4995156;28;20045;-83
2021/06/15 00:07:01;;;;;;;5.43;3.92;;;;;;;14.83;93.05;101013.63;4993959;28;20618;-84
2021/06/15 00:09:27;;;;;;;4.53;3.70;;;;;;;14.80;93.27;101010.22;5012750;28;20107;-83
2021/06/15 00:11:54;;;;;;;7.35;4.15;;;;;;;14.83;93.25;101020.75;4997502;28;20526;-84
2021/06/15 00:14:21;;;;;;;6.03;4.03;;;;;;;14.83;92.90;101015.41;5019266;28;20647;-84
2021/06/15 00:16:48;;;;;;;4.78;4.18;;;;;;;14.80;93.32;101007.56;5026624;28;20047;-82
2021/06/15 00:19:15;;;;;;;5.10;3.97;;;;;;;14.76;93.36;101012.09;5005248;28;20045;-84
2021/06/15 00:21:42;;;;;;;4.25;3.85;;;;;;;14.74;93.32;101007.75;5009419;28;20483;-83
2021/06/15 00:24:08;;;;;;;4.53;3.80;;;;;;;14.69;93.36;101002.56;5008039;28;20059;-82
2021/06/15 00:26:35;;;;;;;5.40;4.00;;;;;;;14.67;93.74;101001.75;4995064;28;20054;-81
2021/06/15 00:29:02;;;;;;;5.68;4.10;;;;;;;14.63;94.22;100998.31;5009857;28;20038;-84
2021/06/15 00:31:29;;;;;;;5.35;4.28;;;;;;;14.63;94.46;100986.81;5019235;28;20041;-83
2021/06/15 00:33:56;;;;;;;4.82;4.10;;;;;;;14.63;94.25;100995.66;5008360;28;20048;-84
2021/06/15 00:36:22;;;;;;;6.03;4.47;;;;;;;14.65;93.84;100990.28;5026189;28;20083;-82
2021/06/15 00:38:49;;;;;;;7.55;4.97;;;;;;;14.57;93.62;100990.53;5026793;28;20041;-83
2021/06/15 00:41:16;;;;;;;5.70;4.40;;;;;;;14.57;94.08;100987.00;5019021;28;20045;-82
2021/06/15 00:43:43;;;;;;;5.97;4.30;;;;;;;14.52;94.29;100995.09;5011653;28;20037;-82
2021/06/15 00:46:09;;;;;;;5.68;4.60;;;;;;;14.50;94.04;101002.28;5026957;28;20546;-84
2021/06/15 00:48:37;;;;;;;4.70;4.22;;;;;;;14.46;94.56;100994.41;5017160;28;20660;-82
2021/06/15 00:51:05;;;;;;;7.90;4.80;;;;;;;14.45;95.12;100992.66;5040294;28;20042;-82
2021/06/15 00:53:34;;;;;;;5.35;4.53;;;;;;;14.46;94.69;100992.66;5001529;28;20049;-84
2021/06/15 00:56:00;;;;;;;6.55;4.72;;;;;;;14.48;94.36;100981.97;5017027;28;20099;-82
2021/06/15 00:58:27;;;;;;;5.30;4.30;;;;;;;14.48;94.13;100993.47;4994153;28;20459;-83
2021/06/15 01:00:54;;;;;;;5.78;4.43;;;;;;;14.42;94.26;100985.66;5025677;28;20041;-82
2021/06/15 01:03:22;;;;;;;10.02;4.60;;;;;;;14.53;93.91;100991.53;5028744;28;20037;-84
2021/06/15 01:05:50;;;;;;;5.30;4.55;;;;;;;14.49;93.28;101000.53;4993583;28;20091;-81
2021/06/15 01:08:43;;;;;;;7.05;5.25;;;;;;;14.41;92.93;100989.22;4991797;28;20461;-85
2021/06/15 01:11:17;;;;;;;6.78;5.00;;;;;;;14.42;92.83;100990.97;5023576;28;20046;-83
2021/06/15 01:13:59;;;;;;;6.40;4.90;;;;;;;14.29;93.51;101000.22;5011232;28;20045;-81
2021/06/15 01:16:37;;;;;;;6.53;4.97;;;;;;;14.22;93.63;100996.91;5036254;28;20045;-83
2021/06/15 01:19:29;;;;;;;5.50;4.43;;;;;;;14.21;93.98;100995.16;5004176;28;20648;-81
2021/06/15 01:22:07;;;;;;;5.65;4.32;;;;;;;14.17;94.51;100993.50;5016897;28;20060;-82
2021/06/15 01:24:39;;;;;;;6.32;4.50;;;;;;;14.21;94.13;100992.50;5024950;28;20045;-82
2021/06/15 01:27:36;;;;;;;6.55;4.55;;;;;;;14.12;94.39;100989.22;5017148;28;20072;-81
2021/06/15 01:30:07;;;;;;;6.13;4.72;;;;;;;14.13;94.73;100991.00;5024909;28;20057;-82
2021/06/15 01:32:35;;;;;;;7.53;5.10;;;;;;;14.14;94.81;100990.94;5011197;28;20046;-82
2021/06/15 01:35:04;;;;;;;5.35;4.22;;;;;;;14.14;94.98;100990.09;5027610;28;20041;-83
2021/06/15 01:37:48;;;;;;;6.63;5.00;;;;;;;14.16;94.54;100993.56;5027330;28;20763;-83
2021/06/15 01:40:17;;;;;;;6.90;5.70;;;;;;;14.11;94.86;100993.69;5023160;28;20045;-81
2021/06/15 01:42:53;;;;;;;8.13;5.05;;;;;;;14.23;94.14;100997.78;5010098;28;20099;-81
2021/06/15 01:45:26;;;;;;;6.68;4.90;;;;;;;14.25;94.18;101012.75;5032928;28;20065;-82
2021/06/15 01:48:05;;;;;;;8.75;5.03;;;;;;;14.27;93.76;101002.94;5014746;28;20033;-81
2021/06/15 01:50:34;;;;;;;8.85;5.88;;;;;;;14.25;94.50;101010.09;5024063;28;20053;-81
2021/06/15 01:53:07;;;;;;;7.05;5.00;;;;;;;14.02;96.09;101005.44;5002969;28;20045;-82
2021/06/15 01:55:35;;;;;;;5.93;4.82;;;;;;;14.06;95.78;101014.22;5012822;28;20049;-82
2021/06/15 01:58:03;;;;;;;7.40;5.35;;;;;;;14.03;95.06;101015.16;5023406;28;20041;-82
2021/06/15 02:00:31;;;;;;;6.25;5.35;;;;;;;13.90;96.85;101008.47;5015559;28;21887;-83
2021/06/15 02:03:00;;;;;;;8.20;5.18;;;;;;;13.94;96.09;101011.91;5019376;28;20461;-83
2021/06/15 02:05:45;;;;;;;6.18;4.65;;;;;;;13.81;96.71;101019.34;5010918;28;20046;-81
2021/06/15 02:08:18;;;;;;;6.13;5.10;;;;;;;13.75;97.43;101015.06;5019339;28;20044;-85
2021/06/15 02:10:45;;;;;;;5.72;5.13;;;;;;;13.79;96.81;101030.03;5006555;28;20041;-82
2021/06/15 02:13:12;;;;;;;8.65;5.88;;;;;;;13.70;97.42;101018.75;5006482;28;20045;-81
2021/06/15 02:15:39;;;;;;;7.78;5.00;;;;;;;13.73;97.55;101019.56;4999314;28;20041;-82
2021/06/15 02:18:07;;;;;;;6.38;5.20;;;;;;;13.79;96.26;101022.06;5032171;28;20095;-84
2021/06/15 02:20:38;;;;;;;8.23;6.13;;;;;;;13.78;95.86;101028.25;5013821;28;20108;-82
2021/06/15 02:23:06;;;;;;;7.55;5.20;;;;;;;13.62;96.97;101023.41;5019089;28;20052;-81
2021/06/15 02:25:35;;;;;;;9.13;5.75;;;;;;;13.66;96.52;101025.97;5026770;28;20045;-82
2021/06/15 02:28:03;;;;;;;6.30;5.07;;;;;;;13.58;97.14;101027.06;5011315;28;20069;-81
2021/06/15 02:30:31;;;;;;;7.15;5.15;;;;;;;13.53;97.48;101028.06;5029579;28;20074;-82
2021/06/15 02:33:05;;;;;;;7.38;5.53;;;;;;;13.57;97.14;101028.00;5029167;28;20040;-81
2021/06/15 02:35:32;;;;;;;6.75;5.35;;;;;;;13.52;96.90;101034.28;5013962;28;20045;-82
2021/06/15 02:38:04;;;;;;;8.60;5.32;;;;;;;13.51;96.89;101042.28;5014808;28;20052;-81
2021/06/15 02:40:32;;;;;;;7.65;5.93;;;;;;;13.45;97.42;101040.69;5009157;28;20128;-81
2021/06/15 02:42:59;;;;;;;8.15;5.38;;;;;;;13.42;97.94;101048.72;4999021;28;20135;-81
2021/06/15 02:45:29;;;;;;;7.35;5.43;;;;;;;13.37;98.64;101036.47;4997134;28;20457;-81
2021/06/15 02:47:58;;;;;;;7.90;6.55;;;;;;;13.51;97.79;101036.97;5005806;28;20499;-80
2021/06/15 02:50:28;;;;;;;7.10;5.65;;;;;;;13.47;98.08;101040.66;5040246;28;20056;-81
2021/06/15 02:53:12;;;;;;;8.00;5.32;;;;;;;13.45;98.29;101035.38;5032375;28;20048;-81
2021/06/15 02:55:54;;;;;;;7.47;5.45;;;;;;;13.42;98.98;101031.91;5019132;28;20475;-81
2021/06/15 02:58:21;;;;;;;6.07;5.47;;;;;;;13.50;98.25;101044.06;5029969;28;20520;-82
2021/06/15 03:00:48;;;;;;;8.63;6.40;;;;;;;13.47;98.71;101043.31;4998211;28;20041;-81
2021/06/15 03:03:15;;;;;;;6.22;5.15;;;;;;;13.39;99.41;101029.34;5019724;28;20525;-80
2021/06/15 03:05:49;;;;;;;8.90;6.03;;;;;;;13.44;98.81;101028.31;5012114;28;20048;-82
2021/06/15 03:08:17;;;;;;;8.00;5.60;;;;;;;13.50;98.45;101029.94;5031657;28;20038;-80
2021/06/15 03:10:44;;;;;;;7.10;5.63;;;;;;;13.51;98.36;101040.50;5013369;28;20041;-80
2021/06/15 03:13:27;;;;;;;6.90;5.35;;;;;;;13.47;98.64;101041.50;5017866;28;20504;-78
2021/06/15 03:15:54;;;;;;;5.80;4.93;;;;;;;13.47;98.70;101041.50;5037167;28;20046;-80
2021/06/15 03:18:33;;;;;;;8.20;5.70;;;;;;;13.48;98.45;101045.03;5023287;28;20056;-80
2021/06/15 03:21:03;;;;;;;10.25;5.90;;;;;;;13.47;98.79;101044.16;5024362;28;20056;-80
2021/06/15 03:23:39;;;;;;;8.30;5.70;;;;;;;13.43;99.19;101046.94;5023450;28;20061;-81
2021/06/15 03:26:10;;;;;;;7.15;5.60;;;;;;;13.50;98.61;101046.72;5029637;28;20079;-81
2021/06/15 03:28:37;;;;;;;8.57;5.60;;;;;;;13.55;97.84;101051.06;5014184;28;20042;-79
2021/06/15 03:31:05;;;;;;;7.60;5.55;;;;;;;13.55;98.01;101045.75;5027340;28;20506;-80
2021/06/15 03:33:34;;;;;;;6.68;5.97;;;;;;;13.53;98.15;101046.63;5014139;28;20144;-80
2021/06/15 03:36:02;;;;;;;8.02;6.20;;;;;;;13.58;97.97;101053.63;5010198;28;20041;-80
2021/06/15 03:38:32;;;;;;;8.25;5.65;;;;;;;13.58;98.02;101048.31;4998906;28;20060;-80
2021/06/15 03:40:59;;;;;;;7.03;5.38;;;;;;;13.52;98.65;101052.00;5012713;28;20048;-81
2021/06/15 03:43:28;;;;;;;7.15;5.53;;;;;;;13.58;98.65;101057.16;4996541;28;20041;-80
2021/06/15 03:46:08;;;;;;;6.65;5.45;;;;;;;13.66;97.70;101059.59;5012114;28;20083;-80
2021/06/15 03:48:36;;;;;;;6.72;5.45;;;;;;;13.63;98.07;101065.00;4994863;28;20060;-80
2021/06/15 03:51:03;;;;;;;6.93;5.25;;;;;;;13.66;98.39;101072.88;5010345;28;20041;-81
2021/06/15 03:53:32;;;;;;;8.38;5.93;;;;;;;13.72;98.06;101072.72;5014541;28;20087;-80
2021/06/15 03:56:02;;;;;;;6.38;5.68;;;;;;;13.78;98.11;101070.75;5024336;28;20085;-80
2021/06/15 03:58:31;;;;;;;7.22;5.63;;;;;;;13.80;98.52;101073.38;5012688;28;20045;-80
2021/06/15 04:00:59;;;;;;;7.53;5.97;;;;;;;13.84;98.63;101074.16;5003056;28;20120;-80
2021/06/15 04:03:27;;;;;;;7.40;6.03;;;;;;;13.82;98.93;101068.03;5011970;28;20494;-80
2021/06/15 04:05:55;;;;;;;7.05;5.78;;;;;;;13.87;99.06;101066.97;5024699;28;20129;-80
2021/06/15 04:08:22;;;;;;;9.30;6.22;;;;;;;13.96;99.13;101066.75;5022047;28;20080;-80
2021/06/15 04:10:52;;;;;;;7.35;5.55;;;;;;;14.03;99.22;101060.31;5006776;28;20418;-79
2021/06/15 04:13:25;;;;;;;7.05;5.35;;;;;;;14.09;99.17;101060.16;5024553;28;20037;-79
2021/06/15 04:15:52;;;;;;;7.50;5.28;;;;;;;14.18;99.42;101058.16;5007298;28;20107;-80
2021/06/15 04:18:20;;;;;;;7.55;5.68;;;;;;;14.35;99.08;101066.50;5022394;28;20498;-80
2021/06/15 04:20:50;;;;;;;6.85;5.90;;;;;;;14.42;99.30;101065.41;5012137;28;20049;-80
2021/06/15 04:23:27;;;;;;;7.30;5.45;;;;;;;14.36;98.83;101066.44;5010467;28;20128;-80
2021/06/15 04:25:54;;;;;;;7.63;5.47;;;;;;;14.53;98.54;101067.75;5004547;28;20138;-80
2021/06/15 04:28:20;;;;;;;6.28;5.68;;;;;;;14.65;98.40;101078.03;5009414;28;20059;-80
2021/06/15 04:30:49;;;;;;;7.35;5.65;;;;;;;14.71;98.83;101080.50;5006877;28;20606;-80
2021/06/15 04:33:19;;;;;;;7.35;5.57;;;;;;;14.84;98.15;101081.00;5015223;28;20679;-80
2021/06/15 04:35:51;;;;;;;7.88;5.88;;;;;;;14.97;96.87;101079.72;5008696;28;20088;-79
2021/06/15 04:38:24;;;;;;;6.47;5.47;;;;;;;15.13;96.66;101083.63;5020646;28;20037;-80
2021/06/15 04:40:52;;;;;;;16.42;6.65;;;;;;;15.12;96.08;101084.50;5012338;28;21721;-81
2021/06/15 04:43:37;;;;;;;7.05;5.47;;;;;;;15.34;94.46;101092.66;5027103;28;20581;-80
2021/06/15 04:46:13;;;;;;;8.38;5.40;;;;;;;15.40;94.83;101103.13;5021150;28;20033;-81
2021/06/15 04:48:41;;;;;;;7.00;5.57;;;;;;;15.46;93.53;101108.22;5023768;28;20050;-80
2021/06/15 04:51:09;;;;;;;8.95;5.88;;;;;;;15.66;92.81;101101.41;4986660;28;20644;-80
2021/06/15 04:53:39;;;;;;;6.57;5.95;;;;;;;15.78;92.69;101106.28;5006492;28;20041;-80
2021/06/15 04:56:06;;;;;;;6.35;5.65;;;;;;;15.86;92.43;101112.22;5011307;28;20061;-80
2021/06/15 04:58:34;;;;;;;5.88;4.95;;;;;;;15.94;92.17;101106.63;5026087;28;20049;-81
2021/06/15 05:01:02;;;;;;;7.82;5.50;;;;;;;16.07;92.66;101110.59;5022566;28;20052;-80
2021/06/15 05:03:30;;;;;;;6.78;5.32;;;;;;;16.17;93.00;101116.47;5010100;28;20049;-80
2021/06/15 05:06:15;;;;;;;7.50;5.22;;;;;;;16.35;89.95;101121.13;5009892;28;20049;-78
2021/06/15 05:08:48;;;;;;;7.47;5.28;;;;;;;16.41;88.75;101122.72;5012084;28;20053;-78
2021/06/15 05:11:15;;;;;;;7.90;5.60;;;;;;;16.41;90.28;101118.25;5009874;28;20057;-79
2021/06/15 05:13:43;;;;;;;7.53;6.30;;;;;;;16.45;91.72;101119.84;5013682;28;20534;-79
2021/06/15 05:16:11;;;;;;;6.20;5.30;;;;;;;16.59;91.13;101119.34;5012327;28;20049;-78
2021/06/15 05:18:38;;;;;;;8.20;5.95;;;;;;;16.69;91.23;101119.88;5025556;28;20068;-79
2021/06/15 05:21:07;;;;;;;7.60;5.85;;;;;;;16.82;91.36;101119.38;5028495;28;20048;-78
2021/06/15 05:23:40;;;;;;;6.63;4.90;;;;;;;16.92;90.09;101125.22;5003269;28;20101;-78
2021/06/15 05:26:07;;;;;;;6.72;4.88;;;;;;;17.02;90.14;101123.03;5025107;28;20049;-79
2021/06/15 05:28:33;;;;;;;7.10;5.72;;;;;;;17.09;88.71;101125.41;5015774;28;20053;-78
2021/06/15 05:31:00;;;;;;;7.30;6.40;;;;;;;17.25;89.24;101122.13;5028640;28;20033;-79
2021/06/15 05:33:26;;;;;;;6.10;4.90;;;;;;;17.35;90.74;101124.34;5014544;28;20089;-79
2021/06/15 05:35:53;;;;;;;8.15;5.28;;;;;;;17.45;90.75;101127.50;5006188;28;20087;-79
2021/06/15 05:38:20;;;;;;;7.20;5.03;;;;;;;17.51;90.98;101121.03;5026753;28;20045;-79
2021/06/15 05:40:48;;;;;;;6.85;5.07;;;;;;;17.60;89.58;101126.88;4991136;28;20049;-79
2021/06/15 05:43:16;;;;;;;9.32;5.38;;;;;;;17.71;88.90;101134.44;5021092;28;20052;-78
2021/06/15 05:45:43;;;;;;;11.07;6.57;;;;;;;17.75;85.33;101141.41;5015532;28;20076;-77
2021/06/15 05:48:10;;;;;;;7.78;6.28;;;;;;;17.83;88.00;101147.31;5032301;28;20084;-81
2021/06/15 05:50:37;;;;;;;8.32;6.47;;;;;;;17.89;84.64;101132.78;4999603;28;20102;-79
2021/06/15 05:53:05;;;;;;;11.30;6.65;;;;;;;17.94;83.68;101144.16;5009619;28;20050;-82
2021/06/15 05:55:31;;;;;;;7.97;6.75;;;;;;;17.98;82.25;101138.59;5000772;28;20045;-81
2021/06/15 05:57:58;;;;;;;9.27;5.55;;;;;;;18.10;83.64;101136.34;4995094;28;20060;-83
2021/06/15 06:00:25;;;;;;;9.15;5.97;;;;;;;18.34;81.31;101134.41;5013332;28;20049;-80
2021/06/15 06:02:52;;;;;;;8.63;6.15;;;;;;;18.76;78.14;101135.13;5011299;28;20050;-79
2021/06/15 06:08:04;;;;;;;7.13;5.38;;;;;;;19.26;77.83;101130.97;5025937;28;20049;-81
2021/06/15 06:10:31;;;;;;;9.57;6.38;;;;;;;19.19;75.62;101130.41;5015325;28;20087;-79
2021/06/15 06:12:58;;;;;;;8.15;5.60;;;;;;;19.11;76.84;101141.47;5035449;28;20049;-77
2021/06/15 06:15:25;;;;;;;7.60;5.15;;;;;;;19.13;78.66;101144.94;5040444;28;20410;-78
2021/06/15 06:17:53;;;;;;;9.80;6.03;;;;;;;19.08;76.92;101149.63;5032370;28;20034;-80
2021/06/15 06:20:20;;;;;;;9.85;6.30;;;;;;;18.91;78.11;101146.91;5000470;28;20477;-77
2021/06/15 06:22:47;;;;;;;8.65;5.72;;;;;;;19.16;79.59;101148.41;5031720;28;20049;-79
2021/06/15 06:25:14;;;;;;;9.02;6.10;;;;;;;19.14;78.21;101129.75;4995887;28;20414;-78
2021/06/15 06:27:41;;;;;;;9.13;5.97;;;;;;;19.50;77.92;101136.91;5030189;28;20053;-83
2021/06/15 06:30:09;;;;;;;8.00;6.10;;;;;;;19.71;77.36;101141.22;5025527;28;20208;-81
2021/06/15 06:32:36;;;;;;;9.43;6.32;;;;;;;19.79;74.73;101144.38;5021864;28;20045;-81
2021/06/15 06:35:04;;;;;;;7.25;6.55;;;;;;;19.93;75.14;101143.69;4996765;28;20477;-82
2021/06/15 06:37:31;;;;;;;8.55;6.78;;;;;;;20.03;74.57;101161.03;5018832;28;20103;-81
2021/06/15 06:39:58;;;;;;;8.15;5.57;;;;;;;19.92;72.87;101166.06;4995309;28;20124;-80
2021/06/15 06:42:25;;;;;;;7.70;5.53;;;;;;;20.00;74.20;101166.53;5014059;28;20126;-82
2021/06/15 06:44:51;;;;;;;6.38;5.75;;;;;;;20.12;75.16;101160.56;4996175;28;20045;-82
2021/06/15 06:47:18;;;;;;;8.23;5.65;;;;;;;20.15;75.36;101160.38;5014269;28;20045;-79
2021/06/15 06:49:46;;;;;;;7.80;6.22;;;;;;;20.35;72.46;101170.09;5001203;28;20052;-82
2021/06/15 06:52:12;;;;;;;10.10;6.07;;;;;;;20.50;72.98;101165.72;5029080;28;20083;-80
2021/06/15 06:54:39;;;;;;;6.35;5.30;;;;;;;20.52;71.93;101170.09;5014059;28;20099;-81
2021/06/15 06:57:06;;;;;;;10.98;6.78;;;;;;;20.31;72.32;101173.00;5012582;28;20056;-82
2021/06/15 06:59:33;;;;;;;7.20;5.60;;;;;;;20.30;74.16;101173.94;5010938;28;20499;-80
2021/06/15 07:01:59;;;;;;;8.02;5.45;;;;;;;20.20;73.46;101171.75;5013632;28;20099;-83
2021/06/15 07:04:26;;;;;;;6.57;5.25;;;;;;;20.15;73.96;101167.56;4995801;28;20537;-84
2021/06/15 07:06:53;;;;;;;10.88;6.10;;;;;;;20.44;73.14;101175.00;4999669;28;20047;-81
2021/06/15 07:09:19;;;;;;;8.35;5.30;;;;;;;20.45;73.26;101168.66;5028518;28;20045;-82
2021/06/15 07:11:46;;;;;;;6.00;5.25;;;;;;;20.55;73.99;101178.91;4999301;28;20041;-83
2021/06/15 07:14:13;;;;;;;7.15;5.15;;;;;;;20.64;71.72;101165.00;5018542;28;20045;-82
2021/06/15 07:16:39;;;;;;;6.95;5.40;;;;;;;20.71;73.29;101171.75;5012211;28;20052;-82
2021/06/15 07:19:11;;;;;;;7.18;5.93;;;;;;;20.81;73.22;101178.34;5010247;28;20573;-81
2021/06/15 07:21:38;;;;;;;8.48;6.10;;;;;;;20.97;71.86;101176.56;5009500;28;20042;-81
2021/06/15 07:24:05;;;;;;;8.63;5.55;;;;;;;21.12;72.62;101180.22;5011068;28;20057;-81
2021/06/15 07:26:32;;;;;;;8.85;5.75;;;;;;;21.24;69.95;101184.88;5017557;28;20045;-81
2021/06/15 07:28:59;;;;;;;8.98;5.85;;;;;;;21.27;70.53;101181.19;5011376;28;20049;-80
2021/06/15 07:31:26;;;;;;;6.30;5.28;;;;;;;21.30;71.24;101187.28;5015019;28;20601;-81
2021/06/15 07:33:53;;;;;;;10.52;6.80;;;;;;;21.19;69.80;101192.38;5014547;28;20457;-81
2021/06/15 07:36:20;;;;;;;12.32;7.25;;;;;;;21.10;69.92;101182.09;5032988;28;20401;-79
2021/06/15 07:38:47;;;;;;;8.98;6.15;;;;;;;20.99;70.06;101192.59;4994289;28;20041;-82
2021/06/15 07:41:15;;;;;;;9.50;6.35;;;;;;;20.90;71.76;101196.66;5012693;28;20097;-81
2021/06/15 07:43:42;;;;;;;8.90;6.22;;;;;;;20.87;71.81;101195.97;5031846;28;20053;-80
2021/06/15 07:46:09;;;;;;;10.60;6.45;;;;;;;20.75;71.29;101200.16;5025950;28;20046;-80
2021/06/15 07:48:36;;;;;;;11.52;6.97;;;;;;;20.55;72.88;101203.06;5006939;28;20057;-82
2021/06/15 07:51:03;;;;;;;6.63;5.95;;;;;;;20.51;72.13;101205.03;5006292;28;20129;-82
2021/06/15 07:53:30;;;;;;;10.95;5.90;;;;;;;20.50;72.53;101200.63;5025589;28;20041;-84
2021/06/15 07:55:56;;;;;;;6.80;5.40;;;;;;;20.44;73.09;101206.34;4994770;28;20136;-80
2021/06/15 07:58:24;;;;;;;9.00;6.45;;;;;;;20.47;74.57;101215.06;5003021;28;20065;-80
2021/06/15 08:00:51;;;;;;;7.53;5.20;;;;;;;20.49;73.67;101209.63;5006345;28;20379;-82
2021/06/15 08:03:19;;;;;;;6.10;5.45;;;;;;;20.50;73.21;101214.03;5010234;28;20081;-82
2021/06/15 08:05:45;;;;;;;8.05;6.07;;;;;;;20.52;72.94;101215.72;5010638;28;20037;-82
2021/06/15 08:08:12;;;;;;;8.68;5.80;;;;;;;20.49;71.95;101213.16;5009552;28;20049;-82
2021/06/15 08:10:39;;;;;;;10.55;5.80;;;;;;;20.54;73.94;101221.00;5023484;28;20368;-82
2021/06/15 08:13:05;;;;;;;8.55;6.13;;;;;;;20.43;72.06;101220.63;5010399;28;20049;-82
2021/06/15 08:15:33;;;;;;;9.15;5.90;;;;;;;20.41;73.44;101220.72;4993057;28;20114;-80
2021/06/15 08:18:00;;;;;;;6.90;5.55;;;;;;;20.44;73.76;101226.00;5011448;28;20049;-82
2021/06/15 08:20:27;;;;;;;9.88;6.85;;;;;;;20.41;73.61;101230.59;5000821;28;20047;-82
2021/06/15 08:22:54;;;;;;;7.88;6.43;;;;;;;20.31;74.80;101234.72;5024504;28;20104;-82
2021/06/15 08:25:20;;;;;;;6.97;6.18;;;;;;;20.34;74.85;101231.84;5024177;28;20041;-81
2021/06/15 08:27:47;;;;;;;8.90;6.13;;;;;;;20.23;74.13;101230.59;4994511;28;20802;-82
2021/06/15 08:30:15;;;;;;;8.93;5.80;;;;;;;20.23;75.19;101237.78;4992403;28;20084;-81
2021/06/15 08:32:42;;;;;;;7.57;5.72;;;;;;;20.21;74.00;101224.47;5003153;28;20049;-80
2021/06/15 08:35:10;;;;;;;9.02;5.57;;;;;;;20.34;74.60;101237.22;4985734;28;20046;-81
2021/06/15 08:37:38;;;;;;;10.77;7.07;;;;;;;20.27;72.21;101227.78;5020905;28;20038;-81
2021/06/15 08:40:06;;;;;;;8.65;6.43;;;;;;;20.29;73.18;101226.75;5027372;28;20045;-81
2021/06/15 08:42:33;;;;;;;6.75;5.55;;;;;;;20.23;73.51;101240.47;4992237;28;20041;-81
2021/06/15 08:45:00;;;;;;;8.20;6.38;;;;;;;20.23;74.47;101238.66;5008850;28;20091;-81
2021/06/15 08:47:27;;;;;;;9.05;6.65;;;;;;;20.14;74.67;101241.81;5009826;28;20111;-82
2021/06/15 08:49:54;;;;;;;9.65;6.93;;;;;;;19.91;74.00;101244.78;5029106;28;20453;-84
2021/06/15 08:52:26;;;;;;;7.65;5.95;;;;;;;19.91;74.16;101248.31;5011507;28;20112;-82
2021/06/15 08:54:54;;;;;;;7.47;5.75;;;;;;;19.83;73.82;101244.28;5019475;28;20045;-82
2021/06/15 08:57:22;;;;;;;10.40;6.20;;;;;;;19.89;74.28;101249.34;4994935;28;20041;-82
2021/06/15 08:59:49;;;;;;;11.90;7.30;;;;;;;19.80;73.28;101244.47;5027216;28;20037;-85
2021/06/15 09:02:15;;;;;;;9.60;6.57;;;;;;;19.73;73.69;101249.25;5011483;28;20071;-84
2021/06/15 09:04:43;;;;;;;7.05;6.13;;;;;;;19.75;74.85;101246.47;4994689;28;20053;-82
2021/06/15 09:07:10;;;;;;;7.25;5.80;;;;;;;19.77;76.00;101258.88;4994503;28;20037;-81
2021/06/15 09:09:44;;;;;;;9.75;6.30;;;;;;;19.81;75.10;101257.78;5021885;28;20046;-82
2021/06/15 09:12:20;;;;;;;10.00;6.40;;;;;;;19.80;75.29;101257.88;5009877;28;20380;-82
2021/06/15 09:14:49;;;;;;;8.40;6.18;;;;;;;19.82;75.71;101264.00;5012895;28;20066;-81
2021/06/15 09:17:25;;;;;;;7.82;6.45;;;;;;;19.85;74.92;101263.88;4986332;28;20034;-81
2021/06/15 09:19:53;;;;;;;10.13;6.32;;;;;;;19.85;74.96;101264.75;5016570;28;20050;-81
2021/06/15 09:22:33;;;;;;;7.63;6.82;;;;;;;19.78;76.44;101265.13;5024458;28;20507;-81
2021/06/15 09:25:01;;;;;;;9.70;6.13;;;;;;;19.89;76.06;101270.81;4994662;28;20133;-81
2021/06/15 09:27:36;;;;;;;10.25;7.32;;;;;;;19.72;73.31;101268.09;5008890;28;20124;-83
2021/06/15 09:30:11;;;;;;;8.27;6.57;;;;;;;19.72;74.56;101266.28;5039730;28;20077;-81
2021/06/15 09:32:41;;;;;;;11.02;6.57;;;;;;;19.63;73.64;101264.91;5008992;28;20049;-80
2021/06/15 09:35:09;;;;;;;9.02;5.68;;;;;;;19.83;72.90;101268.44;5021982;28;20042;-82
2021/06/15 09:37:55;;;;;;;7.38;5.72;;;;;;;19.92;72.60;101266.16;5023824;28;20047;-80
2021/06/15 09:40:26;;;;;;;9.88;5.35;;;;;;;20.20;71.66;101265.66;5008723;28;20033;-82
2021/06/15 09:43:05;;;;;;;7.68;5.78;;;;;;;20.24;69.52;101264.53;5023472;28;20133;-82
2021/06/15 09:45:32;;;;;;;6.95;6.10;;;;;;;20.40;70.32;101270.00;5005909;28;20053;-81
2021/06/15 09:48:20;;;;;;;5.95;5.03;;;;;;;20.36;69.67;101271.09;5005523;28;20045;-79
2021/06/15 09:50:47;;;;;;;6.75;5.43;;;;;;;20.49;69.88;101266.00;5007492;28;20079;-77
2021/06/15 09:53:34;;;;;;;5.97;5.07;;;;;;;20.66;71.46;101265.97;5008559;28;20041;-78
2021/06/15 09:56:09;;;;;;;6.55;5.50;;;;;;;20.63;68.25;101265.28;5025903;28;20208;-78
2021/06/15 09:58:55;;;;;;;5.72;4.57;;;;;;;20.69;68.43;101263.16;5019237;28;20084;-80
2021/06/15 10:01:38;;;;;;;10.50;6.30;;;;;;;20.56;68.46;101262.03;5007471;28;20048;-79
2021/06/15 10:04:15;;;;;;;6.53;4.90;;;;;;;21.01;69.32;101264.06;5025932;28;20108;-78
2021/06/15 10:06:49;;;;;;;7.57;5.88;;;;;;;21.00;68.61;101267.72;5008790;28;20038;-79
2021/06/15 10:09:27;;;;;;;9.52;5.85;;;;;;;21.17;66.70;101264.09;5023047;28;20052;-77
2021/06/15 10:11:56;;;;;;;6.70;5.22;;;;;;;21.08;67.66;101261.94;5004829;28;20045;-79
2021/06/15 10:14:24;;;;;;;8.68;5.90;;;;;;;21.13;67.28;101269.75;5035604;28;20042;-80
2021/06/15 10:16:52;;;;;;;8.07;5.43;;;;;;;21.10;68.01;101265.41;4997700;28;20453;-80
2021/06/15 10:19:18;;;;;;;8.40;5.30;;;;;;;21.53;69.35;101269.31;5040756;28;20392;-77
2021/06/15 10:21:45;;;;;;;6.25;5.03;;;;;;;21.61;66.45;101260.81;5029019;28;20045;-79
2021/06/15 10:27:16;;;;;;;6.22;4.82;;;;;;;21.87;64.25;101265.56;5024423;28;20102;-76
2021/06/15 10:29:49;;;;;;;5.68;5.05;;;;;;;22.19;64.97;101262.81;4989954;28;20070;-81
2021/06/15 10:32:22;;;;;;;6.85;4.72;;;;;;;22.48;63.27;101261.06;4986593;28;20066;-82
2021/06/15 10:34:58;;;;;;;6.80;5.80;;;;;;;22.61;62.99;101262.03;4971313;28;20054;-78
2021/06/15 10:37:39;;;;;;;6.97;5.18;;;;;;;22.48;61.15;101255.69;4986137;28;20302;-81
2021/06/15 10:40:26;;;;;;;9.27;5.95;;;;;;;22.89;62.35;101253.19;4990578;28;20053;-81
2021/06/15 10:43:21;;;;;;;6.70;5.43;;;;;;;22.81;60.07;101251.91;5080075;22;20134;-81
2021/06/15 10:45:53;;;;;;;6.18;4.80;;;;;;;22.54;61.62;101267.94;5032695;28;20040;-82
2021/06/15 10:48:20;;;;;;;6.25;4.95;;;;;;;22.79;63.20;101264.59;5049744;28;20623;-80
2021/06/15 10:50:49;;;;;;;11.60;5.82;;;;;;;22.67;62.50;101260.81;5048130;28;20120;-82
2021/06/15 10:53:18;;;;;;;6.90;6.07;;;;;;;22.38;62.99;101259.91;5026438;28;20044;-79
2021/06/15 10:55:51;;;;;;;7.60;6.22;;;;;;;22.27;63.24;101265.06;5026474;28;20138;-80
2021/06/15 10:58:30;;;;;;;7.68;5.47;;;;;;;22.24;65.01;101274.19;5052553;28;20060;-80
2021/06/15 11:01:15;;;;;;;8.60;5.70;;;;;;;22.17;65.16;101283.56;5049425;28;20559;-79
2021/06/15 11:04:01;;;;;;;8.57;5.50;;;;;;;21.87;65.53;101287.06;5033125;28;20073;-82
2021/06/15 11:06:28;;;;;;;7.30;5.55;;;;;;;21.68;66.58;101291.75;5028064;28;20052;-84
2021/06/15 11:09:12;;;;;;;5.63;4.70;;;;;;;21.42;68.24;101297.72;5054528;28;20045;-80
2021/06/15 11:11:40;;;;;;;9.05;5.25;;;;;;;21.15;67.65;101287.53;5048001;28;20037;-78
2021/06/15 11:14:14;;;;;;;8.40;5.50;;;;;;;20.76;69.31;101291.38;5049001;28;20535;-80
2021/06/15 11:16:47;;;;;;;9.95;6.40;;;;;;;20.59;69.07;101294.09;5014204;28;20437;-80
2021/06/15 11:19:14;;;;;;;10.05;6.60;;;;;;;20.40;70.18;101298.63;5048721;28;20088;-80
2021/06/15 11:21:44;;;;;;;9.20;6.15;;;;;;;20.16;70.67;101303.44;5046127;28;20033;-81
2021/06/15 11:24:21;;;;;;;273.60;34.92;;;;;;;20.05;71.11;101295.94;5045115;28;20037;-83
2021/06/15 11:26:53;;;;;;;19.55;7.00;;;;;;;20.02;71.47;101301.47;5024265;28;20041;-80
2021/06/15 11:29:37;;;;;;;13.05;6.85;;;;;;;19.92;71.32;101309.06;5031694;28;20040;-81
2021/06/15 11:32:22;;;;;;;6.03;5.13;;;;;;;19.94;72.50;101303.66;5021424;28;20093;-83
2021/06/15 11:34:55;;;;;;;17.27;5.70;;;;;;;20.03;73.97;101299.63;5055008;28;20033;-81
2021/06/15 11:37:29;;;;;;;11.43;7.32;;;;;;;20.00;74.25;101305.13;5054167;28;20033;-83
2021/06/15 11:40:16;;;;;;;11.75;6.90;;;;;;;19.79;73.21;101307.94;5031814;28;20049;-82
2021/06/15 11:42:48;;;;;;;11.93;6.18;;;;;;;19.77;75.26;101308.97;5052480;28;20032;-81
2021/06/15 11:45:18;;;;;;;9.70;5.55;;;;;;;19.71;73.46;101306.56;5029265;28;20079;-83